sensor_id;sensor_type;location;lat;lon;timestamp;temperature;humidity
52643;DHT22;38531;53.296;6.614;2023-07-02T00:01:46;15.40;99.90
52643;DHT22;38531;53.296;6.614;2023-07-02T00:04:13;15.30;99.90
52643;DHT22;38531;53.296;6.614;2023-07-02T00:06:45;15.30;99.90
52643;DHT22;38531;53.296;6.614;2023-07-02T00:09:12;15.30;99.90
52643;DHT22;38531;53.296;6.614;2023-07-02T00:11:38;15.20;99.90
52643;DHT22;38531;53.296;6.614;2023-07-02T00:14:08;15.20;99.90
52643;DHT22;38531;53.296;6.614;2023-07-02T00:16:37;15.10;99.90
52643;DHT22;38531;53.296;6.614;2023-07-02T00:19:03;15.10;99.90
52643;DHT22;38531;53.296;6.614;2023-07-02T00:21:29;15.10;99.90
52643;DHT22;38531;53.296;6.614;2023-07-02T00:23:55;15.00;99.90
52643;DHT22;38531;53.296;6.614;2023-07-02T00:26:27;15.00;99.90
52643;DHT22;38531;53.296;6.614;2023-07-02T00:28:54;15.00;99.90
52643;DHT22;38531;53.296;6.614;2023-07-02T00:31:20;14.90;99.90
52643;DHT22;38531;53.296;6.614;2023-07-02T00:33:46;14.90;99.90
52643;DHT22;38531;53.296;6.614;2023-07-02T00:36:13;14.90;99.90
52643;DHT22;38531;53.296;6.614;2023-07-02T00:38:46;14.90;99.90
52643;DHT22;38531;53.296;6.614;2023-07-02T00:41:13;14.80;99.90
52643;DHT22;38531;53.296;6.614;2023-07-02T00:43:39;14.80;99.90
52643;DHT22;38531;53.296;6.614;2023-07-02T00:46:10;14.80;99.90
52643;DHT22;38531;53.296;6.614;2023-07-02T00:48:38;14.80;99.90
52643;DHT22;38531;53.296;6.614;2023-07-02T00:51:05;14.70;99.90
52643;DHT22;38531;53.296;6.614;2023-07-02T00:53:31;14.70;99.90
52643;DHT22;38531;53.296;6.614;2023-07-02T00:55:58;14.70;99.90
52643;DHT22;38531;53.296;6.614;2023-07-02T00:58:23;14.70;99.90
52643;DHT22;38531;53.296;6.614;2023-07-02T01:00:49;14.70;99.90
52643;DHT22;38531;53.296;6.614;2023-07-02T01:03:15;14.70;99.90
52643;DHT22;38531;53.296;6.614;2023-07-02T01:05:41;14.60;99.90
52643;DHT22;38531;53.296;6.614;2023-07-02T01:08:07;14.60;99.90
52643;DHT22;38531;53.296;6.614;2023-07-02T01:10:33;14.60;99.90
52643;DHT22;38531;53.296;6.614;2023-07-02T01:13:04;14.50;99.90
52643;DHT22;38531;53.296;6.614;2023-07-02T01:15:31;14.50;99.90
52643;DHT22;38531;53.296;6.614;2023-07-02T01:17:57;14.50;99.90
52643;DHT22;38531;53.296;6.614;2023-07-02T01:20:24;14.50;99.90
52643;DHT22;38531;53.296;6.614;2023-07-02T01:22:52;14.50;99.90
52643;DHT22;38531;53.296;6.614;2023-07-02T01:25:18;14.40;99.90
52643;DHT22;38531;53.296;6.614;2023-07-02T01:27:44;14.50;99.90
52643;DHT22;38531;53.296;6.614;2023-07-02T01:30:10;14.30;99.90
52643;DHT22;38531;53.296;6.614;2023-07-02T01:32:37;14.30;99.90
52643;DHT22;38531;53.296;6.614;2023-07-02T01:35:04;14.30;99.90
52643;DHT22;38531;53.296;6.614;2023-07-02T01:37:30;14.30;99.90
52643;DHT22;38531;53.296;6.614;2023-07-02T01:40:03;14.20;99.90
52643;DHT22;38531;53.296;6.614;2023-07-02T01:42:32;14.20;99.90
52643;DHT22;38531;53.296;6.614;2023-07-02T01:44:57;14.20;99.90
52643;DHT22;38531;53.296;6.614;2023-07-02T01:47:23;14.10;99.90
52643;DHT22;38531;53.296;6.614;2023-07-02T01:49:50;14.10;99.90
52643;DHT22;38531;53.296;6.614;2023-07-02T01:52:16;14.00;99.90
52643;DHT22;38531;53.296;6.614;2023-07-02T01:54:42;14.00;99.90
52643;DHT22;38531;53.296;6.614;2023-07-02T01:57:08;14.10;99.90
52643;DHT22;38531;53.296;6.614;2023-07-02T01:59:34;14.00;99.90
52643;DHT22;38531;53.296;6.614;2023-07-02T02:02:00;14.00;99.90
52643;DHT22;38531;53.296;6.614;2023-07-02T02:04:26;13.90;99.90
52643;DHT22;38531;53.296;6.614;2023-07-02T02:06:52;13.90;99.90
52643;DHT22;38531;53.296;6.614;2023-07-02T02:09:18;13.90;99.90
52643;DHT22;38531;53.296;6.614;2023-07-02T02:11:47;13.90;99.90
52643;DHT22;38531;53.296;6.614;2023-07-02T02:14:13;13.90;99.90
52643;DHT22;38531;53.296;6.614;2023-07-02T02:16:39;13.80;99.90
52643;DHT22;38531;53.296;6.614;2023-07-02T02:19:05;13.80;99.90
52643;DHT22;38531;53.296;6.614;2023-07-02T02:21:31;13.80;99.90
52643;DHT22;38531;53.296;6.614;2023-07-02T02:23:57;13.80;99.90
52643;DHT22;38531;53.296;6.614;2023-07-02T02:26:23;13.70;99.90
52643;DHT22;38531;53.296;6.614;2023-07-02T02:28:51;13.70;99.90
52643;DHT22;38531;53.296;6.614;2023-07-02T02:31:17;13.70;99.90
52643;DHT22;38531;53.296;6.614;2023-07-02T02:33:43;13.70;99.90
52643;DHT22;38531;53.296;6.614;2023-07-02T02:36:09;13.70;99.90
52643;DHT22;38531;53.296;6.614;2023-07-02T02:38:34;13.60;99.90
52643;DHT22;38531;53.296;6.614;2023-07-02T02:41:02;13.70;99.90
52643;DHT22;38531;53.296;6.614;2023-07-02T02:43:28;13.60;99.90
52643;DHT22;38531;53.296;6.614;2023-07-02T02:45:54;13.70;99.90
52643;DHT22;38531;53.296;6.614;2023-07-02T02:48:19;13.60;99.90
52643;DHT22;38531;53.296;6.614;2023-07-02T02:50:47;13.60;99.90
52643;DHT22;38531;53.296;6.614;2023-07-02T02:53:13;13.50;99.90
52643;DHT22;38531;53.296;6.614;2023-07-02T02:55:39;13.50;99.90
52643;DHT22;38531;53.296;6.614;2023-07-02T02:58:04;13.50;99.90
52643;DHT22;38531;53.296;6.614;2023-07-02T03:00:30;13.50;99.90
52643;DHT22;38531;53.296;6.614;2023-07-02T03:02:56;13.50;99.90
52643;DHT22;38531;53.296;6.614;2023-07-02T03:05:22;13.70;99.90
52643;DHT22;38531;53.296;6.614;2023-07-02T03:07:48;13.50;99.90
52643;DHT22;38531;53.296;6.614;2023-07-02T03:10:14;13.40;99.90
52643;DHT22;38531;53.296;6.614;2023-07-02T03:12:40;13.70;99.90
52643;DHT22;38531;53.296;6.614;2023-07-02T03:15:06;13.40;99.90
52643;DHT22;38531;53.296;6.614;2023-07-02T03:17:32;13.40;99.90
52643;DHT22;38531;53.296;6.614;2023-07-02T03:19:58;13.40;99.90
52643;DHT22;38531;53.296;6.614;2023-07-02T03:22:24;13.70;99.90
52643;DHT22;38531;53.296;6.614;2023-07-02T03:24:49;13.40;99.90
52643;DHT22;38531;53.296;6.614;2023-07-02T03:27:15;13.40;99.90
52643;DHT22;38531;53.296;6.614;2023-07-02T03:29:41;13.40;99.90
52643;DHT22;38531;53.296;6.614;2023-07-02T03:32:07;13.40;99.90
52643;DHT22;38531;53.296;6.614;2023-07-02T03:34:32;13.40;99.90
52643;DHT22;38531;53.296;6.614;2023-07-02T03:36:58;13.40;99.90
52643;DHT22;38531;53.296;6.614;2023-07-02T03:39:24;13.40;99.90
52643;DHT22;38531;53.296;6.614;2023-07-02T03:41:49;13.40;99.90
52643;DHT22;38531;53.296;6.614;2023-07-02T03:44:15;13.40;99.90
52643;DHT22;38531;53.296;6.614;2023-07-02T03:46:41;13.50;99.90
52643;DHT22;38531;53.296;6.614;2023-07-02T03:49:06;13.50;99.90
52643;DHT22;38531;53.296;6.614;2023-07-02T03:51:32;13.50;99.90
52643;DHT22;38531;53.296;6.614;2023-07-02T03:53:58;13.50;99.90
52643;DHT22;38531;53.296;6.614;2023-07-02T03:56:24;13.60;99.90
52643;DHT22;38531;53.296;6.614;2023-07-02T03:58:50;13.60;99.90
52643;DHT22;38531;53.296;6.614;2023-07-02T04:01:16;13.60;99.90
52643;DHT22;38531;53.296;6.614;2023-07-02T04:03:49;13.70;99.90
52643;DHT22;38531;53.296;6.614;2023-07-02T04:06:15;13.80;99.90
52643;DHT22;38531;53.296;6.614;2023-07-02T04:08:41;13.80;99.90
52643;DHT22;38531;53.296;6.614;2023-07-02T04:11:07;13.90;99.90
52643;DHT22;38531;53.296;6.614;2023-07-02T04:13:32;13.90;99.90
52643;DHT22;38531;53.296;6.614;2023-07-02T04:15:58;13.90;99.90
52643;DHT22;38531;53.296;6.614;2023-07-02T04:18:24;14.00;99.90
52643;DHT22;38531;53.296;6.614;2023-07-02T04:20:49;14.00;99.90
52643;DHT22;38531;53.296;6.614;2023-07-02T04:23:15;14.10;99.90
52643;DHT22;38531;53.296;6.614;2023-07-02T04:25:41;14.20;99.90
52643;DHT22;38531;53.296;6.614;2023-07-02T04:28:07;14.20;99.90
52643;DHT22;38531;53.296;6.614;2023-07-02T04:30:33;14.20;99.90
52643;DHT22;38531;53.296;6.614;2023-07-02T04:33:00;14.50;99.90
52643;DHT22;38531;53.296;6.614;2023-07-02T04:35:26;14.30;99.90
52643;DHT22;38531;53.296;6.614;2023-07-02T04:37:51;14.30;99.90
52643;DHT22;38531;53.296;6.614;2023-07-02T04:40:17;14.30;99.90
52643;DHT22;38531;53.296;6.614;2023-07-02T04:42:43;14.40;99.90
52643;DHT22;38531;53.296;6.614;2023-07-02T04:45:13;14.40;99.90
52643;DHT22;38531;53.296;6.614;2023-07-02T04:47:44;14.40;99.90
52643;DHT22;38531;53.296;6.614;2023-07-02T04:50:10;14.40;99.90
52643;DHT22;38531;53.296;6.614;2023-07-02T04:52:37;14.50;99.90
52643;DHT22;38531;53.296;6.614;2023-07-02T04:55:04;14.50;99.90
52643;DHT22;38531;53.296;6.614;2023-07-02T04:57:29;14.60;99.90
52643;DHT22;38531;53.296;6.614;2023-07-02T04:59:55;14.60;99.90
52643;DHT22;38531;53.296;6.614;2023-07-02T05:02:21;14.70;99.90
52643;DHT22;38531;53.296;6.614;2023-07-02T05:04:47;14.70;99.90
52643;DHT22;38531;53.296;6.614;2023-07-02T05:07:12;14.80;99.90
52643;DHT22;38531;53.296;6.614;2023-07-02T05:09:38;14.90;99.90
52643;DHT22;38531;53.296;6.614;2023-07-02T05:12:04;15.00;99.90
52643;DHT22;38531;53.296;6.614;2023-07-02T05:14:30;15.10;99.90
52643;DHT22;38531;53.296;6.614;2023-07-02T05:16:55;15.10;99.90
52643;DHT22;38531;53.296;6.614;2023-07-02T05:19:21;15.30;99.90
52643;DHT22;38531;53.296;6.614;2023-07-02T05:21:47;15.50;99.90
52643;DHT22;38531;53.296;6.614;2023-07-02T05:24:12;15.50;99.90
52643;DHT22;38531;53.296;6.614;2023-07-02T05:26:38;15.60;99.90
52643;DHT22;38531;53.296;6.614;2023-07-02T05:29:04;15.80;99.90
52643;DHT22;38531;53.296;6.614;2023-07-02T05:31:31;15.80;99.90
52643;DHT22;38531;53.296;6.614;2023-07-02T05:33:56;15.90;99.90
52643;DHT22;38531;53.296;6.614;2023-07-02T05:36:22;15.90;99.90
52643;DHT22;38531;53.296;6.614;2023-07-02T05:38:48;15.90;99.90
52643;DHT22;38531;53.296;6.614;2023-07-02T05:41:20;15.80;99.90
52643;DHT22;38531;53.296;6.614;2023-07-02T05:43:47;15.80;99.90
52643;DHT22;38531;53.296;6.614;2023-07-02T05:46:13;15.90;99.90
52643;DHT22;38531;53.296;6.614;2023-07-02T05:48:41;16.00;99.90
52643;DHT22;38531;53.296;6.614;2023-07-02T05:51:07;15.30;99.90
52643;DHT22;38531;53.296;6.614;2023-07-02T05:53:33;16.40;99.90
52643;DHT22;38531;53.296;6.614;2023-07-02T05:55:59;16.40;99.90
52643;DHT22;38531;53.296;6.614;2023-07-02T05:58:25;16.60;99.90
52643;DHT22;38531;53.296;6.614;2023-07-02T06:00:50;16.60;99.90
52643;DHT22;38531;53.296;6.614;2023-07-02T06:03:19;16.70;99.90
52643;DHT22;38531;53.296;6.614;2023-07-02T06:05:49;16.90;99.90
52643;DHT22;38531;53.296;6.614;2023-07-02T06:08:17;17.00;99.90
52643;DHT22;38531;53.296;6.614;2023-07-02T06:10:45;17.10;99.90
52643;DHT22;38531;53.296;6.614;2023-07-02T06:13:11;17.10;99.90
52643;DHT22;38531;53.296;6.614;2023-07-02T06:15:37;17.20;99.90
52643;DHT22;38531;53.296;6.614;2023-07-02T06:21:45;17.40;99.90
52643;DHT22;38531;53.296;6.614;2023-07-02T06:24:10;17.40;99.90
52643;DHT22;38531;53.296;6.614;2023-07-02T06:26:36;17.40;99.90
52643;DHT22;38531;53.296;6.614;2023-07-02T06:29:02;17.50;99.90
52643;DHT22;38531;53.296;6.614;2023-07-02T06:31:27;17.60;99.90
52643;DHT22;38531;53.296;6.614;2023-07-02T06:33:53;17.80;99.90
52643;DHT22;38531;53.296;6.614;2023-07-02T06:36:19;17.90;99.90
52643;DHT22;38531;53.296;6.614;2023-07-02T06:38:45;17.90;99.90
52643;DHT22;38531;53.296;6.614;2023-07-02T06:41:11;18.00;99.90
52643;DHT22;38531;53.296;6.614;2023-07-02T06:43:37;18.20;99.90
52643;DHT22;38531;53.296;6.614;2023-07-02T06:46:02;18.40;99.90
52643;DHT22;38531;53.296;6.614;2023-07-02T06:48:30;18.30;99.90
52643;DHT22;38531;53.296;6.614;2023-07-02T06:50:56;18.10;99.90
52643;DHT22;38531;53.296;6.614;2023-07-02T06:53:21;17.90;99.90
52643;DHT22;38531;53.296;6.614;2023-07-02T06:55:47;17.80;99.90
52643;DHT22;38531;53.296;6.614;2023-07-02T06:58:13;17.80;99.90
52643;DHT22;38531;53.296;6.614;2023-07-02T07:00:38;18.00;99.90
52643;DHT22;38531;53.296;6.614;2023-07-02T07:03:04;18.10;99.90
52643;DHT22;38531;53.296;6.614;2023-07-02T07:05:33;18.30;99.90
52643;DHT22;38531;53.296;6.614;2023-07-02T07:08:00;18.40;99.90
52643;DHT22;38531;53.296;6.614;2023-07-02T07:10:29;18.70;99.90
52643;DHT22;38531;53.296;6.614;2023-07-02T07:13:00;18.70;99.90
52643;DHT22;38531;53.296;6.614;2023-07-02T07:15:26;18.50;99.90
52643;DHT22;38531;53.296;6.614;2023-07-02T07:21:33;18.60;99.90
52643;DHT22;38531;53.296;6.614;2023-07-02T07:23:59;18.70;99.90
52643;DHT22;38531;53.296;6.614;2023-07-02T07:26:25;18.90;99.90
52643;DHT22;38531;53.296;6.614;2023-07-02T07:28:50;19.10;99.90
52643;DHT22;38531;53.296;6.614;2023-07-02T07:31:16;19.20;99.90
52643;DHT22;38531;53.296;6.614;2023-07-02T07:33:42;19.40;99.90
52643;DHT22;38531;53.296;6.614;2023-07-02T07:36:08;19.40;99.90
52643;DHT22;38531;53.296;6.614;2023-07-02T07:38:33;19.50;99.90
52643;DHT22;38531;53.296;6.614;2023-07-02T07:40:59;19.60;99.90
52643;DHT22;38531;53.296;6.614;2023-07-02T07:43:25;19.70;99.90
52643;DHT22;38531;53.296;6.614;2023-07-02T07:45:53;19.80;99.90
52643;DHT22;38531;53.296;6.614;2023-07-02T07:48:20;20.00;99.90
52643;DHT22;38531;53.296;6.614;2023-07-02T07:50:46;20.20;99.90
52643;DHT22;38531;53.296;6.614;2023-07-02T07:53:12;20.20;99.90
52643;DHT22;38531;53.296;6.614;2023-07-02T07:55:38;20.00;99.90
52643;DHT22;38531;53.296;6.614;2023-07-02T07:58:04;20.10;99.90
52643;DHT22;38531;53.296;6.614;2023-07-02T08:00:29;20.00;99.60
52643;DHT22;38531;53.296;6.614;2023-07-02T08:02:55;20.10;99.90
52643;DHT22;38531;53.296;6.614;2023-07-02T08:05:21;20.30;99.90
52643;DHT22;38531;53.296;6.614;2023-07-02T08:07:48;20.30;99.90
52643;DHT22;38531;53.296;6.614;2023-07-02T08:10:14;20.30;99.90
52643;DHT22;38531;53.296;6.614;2023-07-02T08:12:43;20.50;99.90
52643;DHT22;38531;53.296;6.614;2023-07-02T08:15:09;20.60;99.90
52643;DHT22;38531;53.296;6.614;2023-07-02T08:17:34;20.80;99.90
52643;DHT22;38531;53.296;6.614;2023-07-02T08:20:01;20.80;99.70
52643;DHT22;38531;53.296;6.614;2023-07-02T08:22:27;20.70;99.30
52643;DHT22;38531;53.296;6.614;2023-07-02T08:24:53;20.40;99.10
52643;DHT22;38531;53.296;6.614;2023-07-02T08:27:19;20.20;99.40
52643;DHT22;38531;53.296;6.614;2023-07-02T08:29:48;20.10;99.90
52643;DHT22;38531;53.296;6.614;2023-07-02T08:32:15;19.80;99.90
52643;DHT22;38531;53.296;6.614;2023-07-02T08:34:41;19.60;99.90
52643;DHT22;38531;53.296;6.614;2023-07-02T08:37:06;19.40;99.90
52643;DHT22;38531;53.296;6.614;2023-07-02T08:39:33;19.30;99.90
52643;DHT22;38531;53.296;6.614;2023-07-02T08:42:01;19.20;99.90
52643;DHT22;38531;53.296;6.614;2023-07-02T08:44:27;19.30;99.90
52643;DHT22;38531;53.296;6.614;2023-07-02T08:46:53;19.60;99.90
52643;DHT22;38531;53.296;6.614;2023-07-02T08:49:21;19.80;99.90
52643;DHT22;38531;53.296;6.614;2023-07-02T08:51:47;19.80;99.90
52643;DHT22;38531;53.296;6.614;2023-07-02T08:54:13;20.00;99.90
52643;DHT22;38531;53.296;6.614;2023-07-02T08:56:40;20.10;99.90
52643;DHT22;38531;53.296;6.614;2023-07-02T08:59:09;20.20;99.90
52643;DHT22;38531;53.296;6.614;2023-07-02T09:01:52;20.40;99.90
52643;DHT22;38531;53.296;6.614;2023-07-02T09:04:21;20.50;99.90
52643;DHT22;38531;53.296;6.614;2023-07-02T09:06:51;20.40;99.90
52643;DHT22;38531;53.296;6.614;2023-07-02T09:09:17;20.50;99.90
52643;DHT22;38531;53.296;6.614;2023-07-02T09:11:49;20.70;99.90
52643;DHT22;38531;53.296;6.614;2023-07-02T09:14:29;21.00;99.00
52643;DHT22;38531;53.296;6.614;2023-07-02T09:17:03;21.10;99.00
52643;DHT22;38531;53.296;6.614;2023-07-02T09:19:30;21.00;99.10
52643;DHT22;38531;53.296;6.614;2023-07-02T09:21:58;20.90;98.00
52643;DHT22;38531;53.296;6.614;2023-07-02T09:24:28;20.80;98.20
52643;DHT22;38531;53.296;6.614;2023-07-02T09:26:59;21.10;98.00
52643;DHT22;38531;53.296;6.614;2023-07-02T09:29:28;21.10;97.50
52643;DHT22;38531;53.296;6.614;2023-07-02T09:38:47;21.50;96.30
52643;DHT22;38531;53.296;6.614;2023-07-02T09:41:13;21.80;96.50
52643;DHT22;38531;53.296;6.614;2023-07-02T09:43:39;21.70;96.60
52643;DHT22;38531;53.296;6.614;2023-07-02T09:46:06;21.90;96.60
52643;DHT22;38531;53.296;6.614;2023-07-02T09:48:33;22.10;95.70
52643;DHT22;38531;53.296;6.614;2023-07-02T09:51:00;22.00;95.70
52643;DHT22;38531;53.296;6.614;2023-07-02T09:53:28;21.90;95.30
52643;DHT22;38531;53.296;6.614;2023-07-02T09:55:53;22.00;95.10
52643;DHT22;38531;53.296;6.614;2023-07-02T09:58:19;21.80;95.30
52643;DHT22;38531;53.296;6.614;2023-07-02T10:00:45;21.80;94.90
52643;DHT22;38531;53.296;6.614;2023-07-02T10:03:10;22.00;95.30
52643;DHT22;38531;53.296;6.614;2023-07-02T10:05:36;22.30;95.30
52643;DHT22;38531;53.296;6.614;2023-07-02T10:08:13;22.20;94.50
52643;DHT22;38531;53.296;6.614;2023-07-02T10:10:40;22.10;94.20
52643;DHT22;38531;53.296;6.614;2023-07-02T10:13:06;22.00;93.80
52643;DHT22;38531;53.296;6.614;2023-07-02T10:15:32;22.10;94.90
52643;DHT22;38531;53.296;6.614;2023-07-02T10:18:03;22.30;95.70
52643;DHT22;38531;53.296;6.614;2023-07-02T10:20:40;22.50;95.30
52643;DHT22;38531;53.296;6.614;2023-07-02T10:23:08;22.60;94.10
52643;DHT22;38531;53.296;6.614;2023-07-02T10:25:36;22.80;92.60
52643;DHT22;38531;53.296;6.614;2023-07-02T10:28:19;22.80;93.10
52643;DHT22;38531;53.296;6.614;2023-07-02T10:30:45;22.50;92.40
52643;DHT22;38531;53.296;6.614;2023-07-02T10:33:16;22.30;91.90
52643;DHT22;38531;53.296;6.614;2023-07-02T10:35:44;22.50;92.90
52643;DHT22;38531;53.296;6.614;2023-07-02T10:38:18;22.40;93.90
52643;DHT22;38531;53.296;6.614;2023-07-02T10:40:45;22.50;94.00
52643;DHT22;38531;53.296;6.614;2023-07-02T10:43:11;22.70;94.10
52643;DHT22;38531;53.296;6.614;2023-07-02T10:45:36;22.90;94.90
52643;DHT22;38531;53.296;6.614;2023-07-02T10:51:43;23.20;92.90
52643;DHT22;38531;53.296;6.614;2023-07-02T10:54:09;23.30;93.10
52643;DHT22;38531;53.296;6.614;2023-07-02T10:56:35;23.30;93.40
52643;DHT22;38531;53.296;6.614;2023-07-02T10:59:01;22.90;93.40
52643;DHT22;38531;53.296;6.614;2023-07-02T11:01:28;22.50;93.40
52643;DHT22;38531;53.296;6.614;2023-07-02T11:04:02;22.40;93.30
52643;DHT22;38531;53.296;6.614;2023-07-02T11:06:30;22.60;93.90
52643;DHT22;38531;53.296;6.614;2023-07-02T11:08:57;22.80;94.70
52643;DHT22;38531;53.296;6.614;2023-07-02T11:11:23;23.20;93.80
52643;DHT22;38531;53.296;6.614;2023-07-02T11:13:50;23.40;93.90
52643;DHT22;38531;53.296;6.614;2023-07-02T11:16:27;23.60;93.30
52643;DHT22;38531;53.296;6.614;2023-07-02T11:19:06;23.70;93.10
52643;DHT22;38531;53.296;6.614;2023-07-02T11:21:36;23.20;91.90
52643;DHT22;38531;53.296;6.614;2023-07-02T11:24:06;22.80;92.60
52643;DHT22;38531;53.296;6.614;2023-07-02T11:26:37;22.60;92.70
52643;DHT22;38531;53.296;6.614;2023-07-02T11:29:03;22.70;92.40
52643;DHT22;38531;53.296;6.614;2023-07-02T11:31:29;22.80;93.00
52643;DHT22;38531;53.296;6.614;2023-07-02T11:48:39;22.60;91.90
52643;DHT22;38531;53.296;6.614;2023-07-02T11:51:05;22.70;92.80
52643;DHT22;38531;53.296;6.614;2023-07-02T11:53:30;22.30;92.80
52643;DHT22;38531;53.296;6.614;2023-07-02T11:55:56;22.20;93.10
52643;DHT22;38531;53.296;6.614;2023-07-02T11:58:22;22.20;93.40
52643;DHT22;38531;53.296;6.614;2023-07-02T12:00:47;22.10;93.40
52643;DHT22;38531;53.296;6.614;2023-07-02T12:03:13;22.10;94.40
52643;DHT22;38531;53.296;6.614;2023-07-02T12:05:39;22.40;94.00
52643;DHT22;38531;53.296;6.614;2023-07-02T12:08:05;22.80;93.00
52643;DHT22;38531;53.296;6.614;2023-07-02T12:10:30;22.80;93.50
52643;DHT22;38531;53.296;6.614;2023-07-02T12:12:56;22.90;93.10
52643;DHT22;38531;53.296;6.614;2023-07-02T12:15:22;23.10;93.10
52643;DHT22;38531;53.296;6.614;2023-07-02T12:17:47;23.40;93.10
52643;DHT22;38531;53.296;6.614;2023-07-02T12:20:13;23.70;91.40
52643;DHT22;38531;53.296;6.614;2023-07-02T12:22:39;23.50;90.00
52643;DHT22;38531;53.296;6.614;2023-07-02T12:25:05;23.40;90.70
52643;DHT22;38531;53.296;6.614;2023-07-02T12:27:31;23.00;91.20
52643;DHT22;38531;53.296;6.614;2023-07-02T12:29:56;22.60;91.60
52643;DHT22;38531;53.296;6.614;2023-07-02T12:32:22;22.50;92.00
52643;DHT22;38531;53.296;6.614;2023-07-02T12:34:48;22.40;92.10
52643;DHT22;38531;53.296;6.614;2023-07-02T12:37:13;22.20;92.50
52643;DHT22;38531;53.296;6.614;2023-07-02T12:39:42;22.10;91.90
52643;DHT22;38531;53.296;6.614;2023-07-02T12:42:08;22.60;91.70
52643;DHT22;38531;53.296;6.614;2023-07-02T12:44:34;23.10;91.10
52643;DHT22;38531;53.296;6.614;2023-07-02T12:47:00;23.20;88.50
52643;DHT22;38531;53.296;6.614;2023-07-02T12:49:26;23.20;88.20
52643;DHT22;38531;53.296;6.614;2023-07-02T12:51:51;22.80;88.10
52643;DHT22;38531;53.296;6.614;2023-07-02T12:54:17;22.50;88.90
52643;DHT22;38531;53.296;6.614;2023-07-02T12:56:43;22.20;90.00
52643;DHT22;38531;53.296;6.614;2023-07-02T12:59:09;22.30;90.80
52643;DHT22;38531;53.296;6.614;2023-07-02T13:01:34;22.80;91.20
52643;DHT22;38531;53.296;6.614;2023-07-02T13:04:00;22.90;90.70
52643;DHT22;38531;53.296;6.614;2023-07-02T13:06:27;22.80;90.60
52643;DHT22;38531;53.296;6.614;2023-07-02T13:08:53;22.60;90.50
52643;DHT22;38531;53.296;6.614;2023-07-02T13:11:21;22.40;90.00
52643;DHT22;38531;53.296;6.614;2023-07-02T13:13:47;22.20;90.30
52643;DHT22;38531;53.296;6.614;2023-07-02T13:16:13;22.00;91.10
52643;DHT22;38531;53.296;6.614;2023-07-02T13:18:39;21.80;91.60
52643;DHT22;38531;53.296;6.614;2023-07-02T13:21:04;21.70;92.10
52643;DHT22;38531;53.296;6.614;2023-07-02T13:23:30;21.60;92.40
52643;DHT22;38531;53.296;6.614;2023-07-02T13:25:56;21.40;92.60
52643;DHT22;38531;53.296;6.614;2023-07-02T13:28:21;21.40;92.90
52643;DHT22;38531;53.296;6.614;2023-07-02T13:30:49;21.20;92.50
52643;DHT22;38531;53.296;6.614;2023-07-02T13:33:14;21.10;93.00
52643;DHT22;38531;53.296;6.614;2023-07-02T13:35:40;21.30;93.20
52643;DHT22;38531;53.296;6.614;2023-07-02T13:38:06;22.00;93.40
52643;DHT22;38531;53.296;6.614;2023-07-02T13:40:32;22.00;92.80
52643;DHT22;38531;53.296;6.614;2023-07-02T13:42:58;22.00;92.80
52643;DHT22;38531;53.296;6.614;2023-07-02T13:45:23;21.90;92.50
52643;DHT22;38531;53.296;6.614;2023-07-02T13:47:49;21.80;92.50
52643;DHT22;38531;53.296;6.614;2023-07-02T13:50:15;21.60;92.80
52643;DHT22;38531;53.296;6.614;2023-07-02T13:52:41;21.30;92.90
52643;DHT22;38531;53.296;6.614;2023-07-02T13:55:07;21.10;93.30
52643;DHT22;38531;53.296;6.614;2023-07-02T13:57:33;20.90;94.10
52643;DHT22;38531;53.296;6.614;2023-07-02T13:59:59;20.70;93.80
52643;DHT22;38531;53.296;6.614;2023-07-02T14:02:25;20.70;93.60
52643;DHT22;38531;53.296;6.614;2023-07-02T14:04:50;20.60;93.60
52643;DHT22;38531;53.296;6.614;2023-07-02T14:07:16;20.50;92.80
52643;DHT22;38531;53.296;6.614;2023-07-02T14:09:42;20.40;92.70
52643;DHT22;38531;53.296;6.614;2023-07-02T14:12:08;20.30;93.10
52643;DHT22;38531;53.296;6.614;2023-07-02T14:14:33;20.60;93.10
52643;DHT22;38531;53.296;6.614;2023-07-02T14:16:59;20.60;93.50
52643;DHT22;38531;53.296;6.614;2023-07-02T14:19:25;20.50;93.70
52643;DHT22;38531;53.296;6.614;2023-07-02T14:21:51;20.60;94.00
52643;DHT22;38531;53.296;6.614;2023-07-02T14:24:16;20.90;93.20
52643;DHT22;38531;53.296;6.614;2023-07-02T14:26:43;20.90;92.50
52643;DHT22;38531;53.296;6.614;2023-07-02T14:29:10;21.00;92.30
52643;DHT22;38531;53.296;6.614;2023-07-02T14:31:36;21.10;92.50
52643;DHT22;38531;53.296;6.614;2023-07-02T14:34:04;20.90;92.60
52643;DHT22;38531;53.296;6.614;2023-07-02T14:36:44;20.80;92.80
52643;DHT22;38531;53.296;6.614;2023-07-02T14:39:11;20.70;92.80
52643;DHT22;38531;53.296;6.614;2023-07-02T14:41:36;20.40;93.20
52643;DHT22;38531;53.296;6.614;2023-07-02T14:44:03;20.20;93.80
52643;DHT22;38531;53.296;6.614;2023-07-02T14:46:29;20.00;94.00
52643;DHT22;38531;53.296;6.614;2023-07-02T14:48:55;19.90;94.70
52643;DHT22;38531;53.296;6.614;2023-07-02T14:51:21;19.90;94.80
52643;DHT22;38531;53.296;6.614;2023-07-02T14:53:46;20.10;95.50
52643;DHT22;38531;53.296;6.614;2023-07-02T14:56:12;20.20;95.90
52643;DHT22;38531;53.296;6.614;2023-07-02T14:58:38;20.10;94.80
52643;DHT22;38531;53.296;6.614;2023-07-02T15:01:04;20.10;95.30
52643;DHT22;38531;53.296;6.614;2023-07-02T15:03:30;20.00;94.80
52643;DHT22;38531;53.296;6.614;2023-07-02T15:06:15;20.00;94.90
52643;DHT22;38531;53.296;6.614;2023-07-02T15:08:42;19.90;95.20
52643;DHT22;38531;53.296;6.614;2023-07-02T15:11:09;19.90;95.10
52643;DHT22;38531;53.296;6.614;2023-07-02T15:13:38;19.70;95.00
52643;DHT22;38531;53.296;6.614;2023-07-02T15:16:04;19.80;95.60
52643;DHT22;38531;53.296;6.614;2023-07-02T15:18:30;19.70;95.30
52643;DHT22;38531;53.296;6.614;2023-07-02T15:20:56;20.20;95.10
52643;DHT22;38531;53.296;6.614;2023-07-02T15:23:24;20.90;94.40
52643;DHT22;38531;53.296;6.614;2023-07-02T15:26:00;21.40;92.90
52643;DHT22;38531;53.296;6.614;2023-07-02T15:28:29;21.50;92.00
52643;DHT22;38531;53.296;6.614;2023-07-02T15:30:58;21.40;92.10
52643;DHT22;38531;53.296;6.614;2023-07-02T15:33:24;21.20;92.00
52643;DHT22;38531;53.296;6.614;2023-07-02T15:35:53;21.00;92.20
52643;DHT22;38531;53.296;6.614;2023-07-02T15:38:19;20.80;92.70
52643;DHT22;38531;53.296;6.614;2023-07-02T15:40:47;20.70;92.70
52643;DHT22;38531;53.296;6.614;2023-07-02T15:43:13;20.70;92.10
52643;DHT22;38531;53.296;6.614;2023-07-02T15:45:39;20.60;92.90
52643;DHT22;38531;53.296;6.614;2023-07-02T15:48:05;20.50;93.20
52643;DHT22;38531;53.296;6.614;2023-07-02T15:50:31;20.30;93.60
52643;DHT22;38531;53.296;6.614;2023-07-02T15:52:57;20.20;94.10
52643;DHT22;38531;53.296;6.614;2023-07-02T15:55:23;20.00;94.00
52643;DHT22;38531;53.296;6.614;2023-07-02T15:57:52;19.80;94.30
52643;DHT22;38531;53.296;6.614;2023-07-02T16:00:24;19.60;93.80